createdAt,value
2023-05-23T00:00:57.666Z,22.68
2023-05-23T00:01:57.708Z,22.73
2023-05-23T00:02:57.714Z,22.70
2023-05-23T00:03:57.672Z,22.69
2023-05-23T00:04:57.629Z,22.70
2023-05-23T00:05:57.618Z,22.66
2023-05-23T00:06:57.612Z,22.73
2023-05-23T00:07:57.611Z,22.60
2023-05-23T00:08:57.565Z,22.59
2023-05-23T00:09:57.672Z,22.60
2023-05-23T00:10:57.558Z,22.62
2023-05-23T00:11:57.534Z,22.60
2023-05-23T00:12:57.539Z,22.72
2023-05-23T00:13:57.552Z,22.70
2023-05-23T00:14:57.532Z,22.72
2023-05-23T00:15:57.489Z,22.66
2023-05-23T00:16:57.506Z,22.78
2023-05-23T00:17:57.512Z,22.72
2023-05-23T00:18:57.509Z,22.68
2023-05-23T00:19:57.469Z,22.72
2023-05-23T00:20:57.440Z,22.65
2023-05-23T00:21:57.451Z,22.72
2023-05-23T00:22:57.428Z,22.69
2023-05-23T00:23:57.411Z,22.70
2023-05-23T00:24:57.416Z,22.75
2023-05-23T00:25:57.505Z,22.69
2023-05-23T00:26:57.387Z,22.69
2023-05-23T00:27:57.362Z,22.62
2023-05-23T00:28:57.372Z,22.63
2023-05-23T00:29:57.347Z,22.60
2023-05-23T00:30:57.394Z,22.53
2023-05-23T00:31:57.360Z,22.48
2023-05-23T00:32:57.378Z,22.48
2023-05-23T00:33:57.300Z,22.48
2023-05-23T00:34:57.282Z,22.48
2023-05-23T00:35:57.284Z,22.47
2023-05-23T00:36:57.272Z,22.51
2023-05-23T00:37:57.290Z,22.41
2023-05-23T00:38:57.242Z,22.44
2023-05-23T00:39:57.259Z,22.41
2023-05-23T00:40:57.222Z,22.35
2023-05-23T00:41:57.348Z,22.30
2023-05-23T00:42:57.215Z,22.41
2023-05-23T00:43:57.182Z,22.39
2023-05-23T00:44:57.181Z,22.48
2023-05-23T00:45:57.166Z,22.45
2023-05-23T00:46:57.221Z,22.39
2023-05-23T00:47:57.176Z,22.41
2023-05-23T00:48:57.137Z,22.35
2023-05-23T00:49:57.135Z,22.41
2023-05-23T00:50:57.116Z,22.35
2023-05-23T00:51:57.112Z,22.44
2023-05-23T00:52:57.104Z,22.44
2023-05-23T00:53:57.084Z,22.33
2023-05-23T00:54:57.059Z,22.33
2023-05-23T00:55:57.097Z,22.25
2023-05-23T00:56:57.047Z,22.20
2023-05-23T00:57:57.249Z,22.29
2023-05-23T00:58:57.033Z,22.28
2023-05-23T00:59:57.037Z,22.28
2023-05-23T01:00:56.993Z,22.25
2023-05-23T01:01:57.140Z,22.20
2023-05-23T01:02:57.113Z,22.28
2023-05-23T01:03:57.007Z,22.28
2023-05-23T01:04:57.019Z,22.28
2023-05-23T01:05:56.997Z,22.17
2023-05-23T01:06:56.973Z,22.20
2023-05-23T01:07:56.932Z,22.18
2023-05-23T01:08:56.909Z,22.20
2023-05-23T01:09:56.904Z,22.18
2023-05-23T01:10:56.916Z,22.18
2023-05-23T01:11:56.896Z,22.25
2023-05-23T01:12:56.863Z,22.20
2023-05-23T01:13:56.967Z,22.15
2023-05-23T01:14:56.856Z,22.25
2023-05-23T01:15:56.849Z,22.17
2023-05-23T01:16:56.934Z,22.20
2023-05-23T01:17:56.895Z,22.20
2023-05-23T01:18:56.821Z,22.17
2023-05-23T01:19:56.821Z,22.15
2023-05-23T01:20:56.815Z,22.17
2023-05-23T01:21:56.769Z,22.13
2023-05-23T01:22:56.757Z,22.15
2023-05-23T01:23:56.741Z,22.17
2023-05-23T01:24:56.791Z,22.13
2023-05-23T01:25:56.728Z,22.13
2023-05-23T01:26:56.743Z,22.17
2023-05-23T01:27:56.698Z,22.02
2023-05-23T01:28:56.718Z,22.08
2023-05-23T01:29:56.807Z,21.95
2023-05-23T01:30:56.729Z,21.89
2023-05-23T01:31:56.702Z,21.83
2023-05-23T01:32:56.746Z,21.77
2023-05-23T01:33:56.650Z,21.75
2023-05-23T01:34:56.662Z,21.69
2023-05-23T01:35:56.619Z,21.64
2023-05-23T01:36:56.696Z,21.64
2023-05-23T01:37:56.598Z,21.57
2023-05-23T01:38:56.573Z,21.67
2023-05-23T01:39:56.583Z,21.66
2023-05-23T01:40:56.552Z,21.61
2023-05-23T01:41:56.560Z,21.57
2023-05-23T01:42:56.536Z,21.64
2023-05-23T01:43:56.558Z,21.64
2023-05-23T01:44:56.520Z,21.69
2023-05-23T01:45:56.689Z,21.62
2023-05-23T01:46:56.487Z,21.58
2023-05-23T01:47:56.544Z,21.62
2023-05-23T01:48:56.472Z,21.64
2023-05-23T01:49:56.481Z,21.70
2023-05-23T01:50:56.449Z,21.54
2023-05-23T01:51:56.455Z,21.57
2023-05-23T01:52:56.421Z,21.51
2023-05-23T01:53:56.410Z,21.60
2023-05-23T01:54:56.424Z,21.67
2023-05-23T01:55:56.388Z,21.67
2023-05-23T01:56:56.393Z,21.60
2023-05-23T01:57:56.410Z,21.67
2023-05-23T01:58:56.357Z,21.62
2023-05-23T01:59:56.380Z,21.67
2023-05-23T02:00:56.369Z,21.61
2023-05-23T02:01:56.456Z,21.73
2023-05-23T02:02:56.387Z,21.69
2023-05-23T02:03:56.333Z,21.77
2023-05-23T02:04:56.305Z,21.64
2023-05-23T02:05:56.297Z,21.75
2023-05-23T02:06:56.290Z,21.64
2023-05-23T02:07:56.260Z,21.67
2023-05-23T02:08:56.265Z,21.75
2023-05-23T02:09:56.235Z,21.72
2023-05-23T02:10:56.253Z,21.79
2023-05-23T02:11:56.220Z,21.70
2023-05-23T02:12:56.238Z,21.73
2023-05-23T02:13:56.205Z,21.73
2023-05-23T02:14:56.233Z,21.64
2023-05-23T02:15:56.172Z,21.77
2023-05-23T02:16:56.265Z,21.69
2023-05-23T02:17:56.319Z,21.72
2023-05-23T02:18:56.246Z,21.69
2023-05-23T02:19:56.132Z,21.73
2023-05-23T02:20:56.132Z,21.73
2023-05-23T02:21:56.104Z,21.61
2023-05-23T02:22:56.115Z,21.64
2023-05-23T02:23:56.085Z,21.61
2023-05-23T02:24:56.116Z,21.61
2023-05-23T02:25:56.082Z,21.57
2023-05-23T02:26:56.079Z,21.61
2023-05-23T02:27:56.036Z,21.62
2023-05-23T02:28:56.033Z,21.62
2023-05-23T02:29:56.022Z,21.64
2023-05-23T02:30:56.080Z,21.60
2023-05-23T02:31:56.000Z,21.70
2023-05-23T02:32:56.076Z,21.57
2023-05-23T02:33:56.095Z,21.62
2023-05-23T02:34:57.443Z,21.67
2023-05-23T02:35:55.979Z,21.61
2023-05-23T02:36:55.972Z,21.62
2023-05-23T02:37:55.940Z,21.69
2023-05-23T02:38:55.922Z,21.62
2023-05-23T02:39:55.911Z,21.82
2023-05-23T02:41:03.688Z,21.92
2023-05-23T02:41:55.912Z,21.79
2023-05-23T02:42:55.876Z,21.82
2023-05-23T02:43:55.875Z,21.72
2023-05-23T02:44:55.850Z,21.76
2023-05-23T02:45:55.894Z,21.75
2023-05-23T02:46:55.854Z,21.69
2023-05-23T02:47:55.854Z,21.67
2023-05-23T02:48:55.824Z,21.72
2023-05-23T02:49:55.911Z,21.73
2023-05-23T02:50:55.789Z,21.73
2023-05-23T02:51:55.769Z,21.76
2023-05-23T02:52:55.827Z,21.69
2023-05-23T02:53:55.782Z,21.69
2023-05-23T02:54:55.751Z,21.67
2023-05-23T02:55:55.756Z,21.61
2023-05-23T02:56:55.716Z,21.64
2023-05-23T02:57:55.716Z,21.66
2023-05-23T02:58:55.698Z,21.69
2023-05-23T02:59:55.723Z,21.64
2023-05-23T03:00:55.692Z,21.52
2023-05-23T03:01:55.726Z,21.52
2023-05-23T03:02:55.708Z,21.57
2023-05-23T03:03:55.764Z,21.61
2023-05-23T03:04:55.706Z,21.50
2023-05-23T03:05:55.829Z,21.46
2023-05-23T03:06:55.650Z,21.58
2023-05-23T03:07:55.645Z,21.69
2023-05-23T03:08:55.618Z,21.66
2023-05-23T03:09:55.657Z,21.67
2023-05-23T03:10:55.632Z,21.61
2023-05-23T03:11:55.638Z,21.61
2023-05-23T03:12:55.592Z,21.50
2023-05-23T03:13:55.582Z,21.48
2023-05-23T03:14:55.592Z,21.43
2023-05-23T03:15:55.632Z,21.51
2023-05-23T03:16:55.536Z,21.51
2023-05-23T03:17:55.553Z,21.57
2023-05-23T03:18:55.586Z,21.50
2023-05-23T03:19:55.527Z,21.55
2023-05-23T03:20:55.531Z,21.50
2023-05-23T03:21:56.229Z,21.52
2023-05-23T03:22:55.480Z,21.55
2023-05-23T03:23:55.465Z,21.62
2023-05-23T03:24:55.469Z,21.51
2023-05-23T03:25:55.448Z,21.37
2023-05-23T03:26:55.464Z,21.52
2023-05-23T03:27:55.472Z,21.33
2023-05-23T03:28:55.411Z,21.21
2023-05-23T03:29:55.416Z,21.24
2023-05-23T03:30:55.390Z,21.18
2023-05-23T03:31:55.440Z,21.02
2023-05-23T03:32:55.429Z,21.03
2023-05-23T03:33:55.379Z,20.96
2023-05-23T03:34:55.384Z,21.03
2023-05-23T03:35:55.331Z,21.05
2023-05-23T03:36:55.353Z,21.15
2023-05-23T03:37:55.461Z,21.21
2023-05-23T03:38:55.325Z,21.02
2023-05-23T03:39:55.283Z,21.03
2023-05-23T03:40:55.274Z,21.07
2023-05-23T03:41:55.279Z,21.17
2023-05-23T03:42:55.277Z,21.22
2023-05-23T03:43:55.280Z,21.27
2023-05-23T03:44:55.237Z,21.02
2023-05-23T03:45:55.245Z,21.07
2023-05-23T03:46:55.233Z,21.14
2023-05-23T03:47:55.242Z,21.12
2023-05-23T03:48:55.200Z,21.20
2023-05-23T03:49:55.199Z,21.25
2023-05-23T03:50:55.169Z,21.21
2023-05-23T03:51:55.182Z,21.17
2023-05-23T03:52:55.168Z,21.15
2023-05-23T03:53:55.260Z,21.15
2023-05-23T03:54:55.130Z,21.25
2023-05-23T03:55:55.132Z,21.27
2023-05-23T03:56:55.112Z,21.30
2023-05-23T03:57:55.089Z,21.33
2023-05-23T03:58:55.213Z,21.32
2023-05-23T03:59:55.068Z,21.37
2023-05-23T04:00:55.086Z,21.27
2023-05-23T04:01:55.051Z,21.24
2023-05-23T04:02:55.086Z,21.35
2023-05-23T04:03:55.088Z,21.27
2023-05-23T04:04:55.029Z,21.07
2023-05-23T04:05:55.019Z,21.03
2023-05-23T04:06:55.005Z,21.12
2023-05-23T04:07:55.028Z,21.22
2023-05-23T04:08:54.966Z,21.22
2023-05-23T04:09:55.082Z,21.29
2023-05-23T04:10:54.943Z,21.20
2023-05-23T04:11:54.958Z,21.24
2023-05-23T04:12:54.920Z,21.25
2023-05-23T04:13:54.962Z,21.33
2023-05-23T04:14:54.921Z,21.42
2023-05-23T04:15:54.906Z,21.42
2023-05-23T04:16:54.881Z,21.32
2023-05-23T04:17:54.929Z,21.37
2023-05-23T04:18:54.905Z,21.29
2023-05-23T04:19:54.857Z,21.29
2023-05-23T04:20:54.841Z,21.32
2023-05-23T04:21:54.791Z,21.33
2023-05-23T04:22:54.809Z,21.27
2023-05-23T04:23:54.781Z,21.25
2023-05-23T04:24:54.755Z,21.15
2023-05-23T04:25:54.858Z,21.15
2023-05-23T04:26:54.733Z,21.07
2023-05-23T04:27:54.743Z,20.99
2023-05-23T04:28:54.735Z,20.82
2023-05-23T04:29:54.705Z,20.88
2023-05-23T04:30:54.740Z,20.96
2023-05-23T04:31:54.669Z,20.95
2023-05-23T04:32:54.779Z,21.00
2023-05-23T04:33:54.676Z,21.00
2023-05-23T04:34:54.674Z,20.95
2023-05-23T04:35:54.619Z,20.97
2023-05-23T04:36:54.631Z,21.03
2023-05-23T04:37:54.606Z,20.99
2023-05-23T04:38:54.608Z,20.99
2023-05-23T04:39:54.611Z,21.03
2023-05-23T04:40:54.634Z,21.00
2023-05-23T04:41:54.573Z,21.02
2023-05-23T04:42:54.568Z,21.03
2023-05-23T04:43:54.842Z,21.17
2023-05-23T04:44:54.546Z,21.17
2023-05-23T04:45:54.547Z,21.15
2023-05-23T04:46:54.508Z,21.22
2023-05-23T04:47:54.645Z,21.27
2023-05-23T04:48:54.509Z,21.30
2023-05-23T04:49:54.475Z,21.17
2023-05-23T04:50:54.489Z,21.21
2023-05-23T04:51:54.484Z,21.27
2023-05-23T04:52:54.437Z,21.40
2023-05-23T04:53:54.431Z,21.33
2023-05-23T04:54:54.419Z,21.40
2023-05-23T04:55:54.420Z,21.48
2023-05-23T04:56:54.427Z,21.50
2023-05-23T04:57:54.504Z,21.54
2023-05-23T04:58:54.366Z,21.57
2023-05-23T04:59:54.360Z,21.46
2023-05-23T05:00:54.406Z,21.46
2023-05-23T05:01:54.350Z,21.52
2023-05-23T05:02:54.392Z,21.50
2023-05-23T05:03:54.350Z,21.50
2023-05-23T05:04:54.306Z,21.51
2023-05-23T05:05:54.304Z,21.51
2023-05-23T05:06:54.289Z,21.61
2023-05-23T05:07:54.306Z,21.50
2023-05-23T05:08:54.261Z,21.52
2023-05-23T05:09:54.253Z,21.61
2023-05-23T05:10:54.258Z,21.76
2023-05-23T05:11:54.234Z,21.73
2023-05-23T05:12:54.227Z,21.76
2023-05-23T05:13:54.352Z,21.83
2023-05-23T05:14:54.219Z,21.83
2023-05-23T05:15:54.179Z,21.79
2023-05-23T05:16:54.204Z,21.77
2023-05-23T05:17:54.184Z,21.79
2023-05-23T05:18:54.207Z,21.96
2023-05-23T05:19:54.146Z,21.92
2023-05-23T05:20:54.171Z,21.99
2023-05-23T05:21:54.116Z,21.96
2023-05-23T05:22:54.102Z,21.99
2023-05-23T05:23:54.105Z,21.99
2023-05-23T05:24:54.098Z,21.95
2023-05-23T05:25:54.104Z,22.00
2023-05-23T05:26:54.057Z,21.96
2023-05-23T05:27:54.057Z,21.98
2023-05-23T05:28:54.040Z,21.98
2023-05-23T05:29:54.137Z,21.99
2023-05-23T05:30:54.053Z,21.91
2023-05-23T05:31:54.049Z,21.83
2023-05-23T05:32:54.058Z,21.85
2023-05-23T05:33:53.980Z,21.82
2023-05-23T05:34:53.977Z,21.93
2023-05-23T05:35:53.959Z,21.91
2023-05-23T05:36:53.993Z,21.85
2023-05-23T05:37:53.950Z,21.73
2023-05-23T05:38:53.936Z,21.75
2023-05-23T05:39:53.915Z,21.54
2023-05-23T05:40:53.922Z,21.60
2023-05-23T05:41:53.898Z,21.57
2023-05-23T05:42:53.903Z,21.51
2023-05-23T05:43:53.897Z,21.61
2023-05-23T05:44:53.884Z,21.48
2023-05-23T05:45:54.004Z,21.55
2023-05-23T05:46:53.859Z,21.61
2023-05-23T05:47:53.945Z,21.66
2023-05-23T05:48:53.882Z,21.39
2023-05-23T05:49:53.815Z,21.45
2023-05-23T05:50:53.808Z,21.54
2023-05-23T05:51:53.795Z,21.67
2023-05-23T05:52:53.793Z,21.66
2023-05-23T05:53:53.771Z,21.73
2023-05-23T05:54:53.772Z,21.73
2023-05-23T05:55:53.775Z,21.79
2023-05-23T05:56:53.729Z,21.36
2023-05-23T05:57:53.739Z,20.97
2023-05-23T05:58:53.706Z,20.96
2023-05-23T05:59:53.706Z,20.99
2023-05-23T06:00:53.682Z,21.12
2023-05-23T06:01:53.817Z,21.14
2023-05-23T06:02:53.743Z,21.07
2023-05-23T06:03:53.838Z,21.27
2023-05-23T06:04:53.846Z,21.40
2023-05-23T06:05:53.639Z,21.33
2023-05-23T06:06:53.629Z,21.17
2023-05-23T06:07:53.661Z,21.27
2023-05-23T06:08:53.612Z,21.24
2023-05-23T06:09:53.606Z,21.42
2023-05-23T06:10:53.587Z,21.46
2023-05-23T06:11:53.585Z,21.70
2023-05-23T06:12:53.565Z,21.58
2023-05-23T06:13:53.572Z,20.96
2023-05-23T06:14:53.544Z,20.85
2023-05-23T06:15:53.646Z,20.88
2023-05-23T06:16:53.545Z,21.06
2023-05-23T06:17:53.652Z,21.20
2023-05-23T06:18:53.560Z,21.27
2023-05-23T06:19:53.507Z,21.20
2023-05-23T06:20:53.479Z,21.21
2023-05-23T06:21:53.454Z,21.12
2023-05-23T06:22:53.472Z,21.00
2023-05-23T06:23:53.443Z,21.02
2023-05-23T06:24:53.422Z,20.78
2023-05-23T06:25:53.428Z,20.69
2023-05-23T06:26:53.407Z,20.81
2023-05-23T06:27:53.392Z,20.88
2023-05-23T06:28:53.396Z,21.03
2023-05-23T06:29:53.408Z,21.07
2023-05-23T06:30:53.362Z,21.17
2023-05-23T06:31:53.369Z,21.21
2023-05-23T06:32:53.370Z,21.24
2023-05-23T06:33:53.447Z,21.05
2023-05-23T06:34:53.321Z,20.88
2023-05-23T06:35:53.337Z,20.75
2023-05-23T06:36:53.294Z,20.77
2023-05-23T06:37:53.325Z,20.85
2023-05-23T06:38:53.305Z,20.50
2023-05-23T06:39:53.299Z,20.67
2023-05-23T06:40:53.268Z,20.48
2023-05-23T06:41:53.260Z,20.51
2023-05-23T06:42:53.226Z,20.59
2023-05-23T06:43:53.249Z,20.66
2023-05-23T06:44:53.200Z,20.80
2023-05-23T06:45:53.217Z,20.92
2023-05-23T06:46:53.201Z,20.48
2023-05-23T06:47:53.302Z,20.29
2023-05-23T06:49:02.687Z,19.99
2023-05-23T06:49:54.271Z,19.77
2023-05-23T06:50:53.223Z,19.88
2023-05-23T06:51:53.157Z,19.88
2023-05-23T06:52:53.112Z,20.07
2023-05-23T06:53:53.108Z,20.03
2023-05-23T06:54:53.090Z,20.18
2023-05-23T06:55:53.091Z,20.18
2023-05-23T06:56:53.097Z,20.28
2023-05-23T06:57:53.066Z,20.39
2023-05-23T06:58:53.045Z,20.40
2023-05-23T06:59:53.049Z,20.09
2023-05-23T07:00:53.082Z,19.89
2023-05-23T07:01:53.048Z,19.91
2023-05-23T07:02:53.046Z,19.77
2023-05-23T07:03:53.009Z,19.45
2023-05-23T07:04:53.001Z,19.55
2023-05-23T07:05:53.158Z,19.85
2023-05-23T07:06:52.992Z,20.02
2023-05-23T07:07:52.988Z,19.95
2023-05-23T07:08:52.949Z,20.03
2023-05-23T07:09:52.979Z,19.96
2023-05-23T07:10:52.915Z,19.88
2023-05-23T07:11:52.907Z,20.00
2023-05-23T07:12:52.901Z,20.21
2023-05-23T07:13:52.905Z,20.36
2023-05-23T07:14:52.884Z,20.36
2023-05-23T07:15:52.860Z,20.24
2023-05-23T07:16:52.928Z,20.18
2023-05-23T07:17:52.883Z,20.28
2023-05-23T07:18:52.890Z,20.43
2023-05-23T07:19:52.825Z,20.43
2023-05-23T07:20:52.833Z,20.43
2023-05-23T07:21:52.918Z,20.48
2023-05-23T07:22:52.830Z,20.47
2023-05-23T07:23:52.782Z,20.24
2023-05-23T07:24:52.772Z,20.34
2023-05-23T07:26:01.855Z,20.44
2023-05-23T07:26:53.743Z,20.50
2023-05-23T07:27:52.740Z,20.59
2023-05-23T07:28:52.725Z,20.70
2023-05-23T07:29:52.711Z,20.75
2023-05-23T07:30:52.758Z,20.75
2023-05-23T07:31:52.688Z,20.72
2023-05-23T07:32:52.733Z,20.69
2023-05-23T07:33:55.526Z,20.67
2023-05-23T07:34:52.700Z,20.52
2023-05-23T07:35:52.657Z,20.39
2023-05-23T07:36:52.645Z,20.39
2023-05-23T07:37:52.655Z,20.40
2023-05-23T07:38:52.618Z,20.26
2023-05-23T07:39:52.599Z,20.25
2023-05-23T07:41:06.749Z,20.19
2023-05-23T07:41:53.579Z,20.28
2023-05-23T07:42:52.582Z,20.22
2023-05-23T07:43:52.563Z,20.32
2023-05-23T07:44:52.538Z,20.29
2023-05-23T07:45:52.549Z,20.18
2023-05-23T07:46:52.844Z,20.29
2023-05-23T07:47:52.543Z,20.39
2023-05-23T07:48:52.509Z,20.50
2023-05-23T07:49:52.493Z,20.34
2023-05-23T07:50:52.471Z,20.48
2023-05-23T07:51:52.455Z,20.47
2023-05-23T07:52:52.468Z,20.51
2023-05-23T07:53:52.489Z,20.41
2023-05-23T07:54:52.434Z,20.40
2023-05-23T07:55:52.408Z,20.44
2023-05-23T07:56:52.398Z,20.47
2023-05-23T07:57:52.404Z,20.56
2023-05-23T07:58:52.382Z,20.43
2023-05-23T07:59:52.409Z,20.43
2023-05-23T08:00:53.134Z,20.18
2023-05-23T08:01:52.516Z,20.21
2023-05-23T08:02:52.392Z,20.29
2023-05-23T08:03:52.351Z,20.40
2023-05-23T08:04:52.315Z,20.39
2023-05-23T08:05:52.322Z,20.58
2023-05-23T08:07:05.079Z,20.51
2023-05-23T08:07:53.307Z,20.55
2023-05-23T08:08:52.267Z,20.47
2023-05-23T08:09:52.280Z,20.28
2023-05-23T08:10:52.289Z,20.40
2023-05-23T08:11:52.238Z,20.40
2023-05-23T08:12:52.243Z,20.41
2023-05-23T08:13:52.248Z,20.36
2023-05-23T08:14:52.737Z,20.41
2023-05-23T08:15:52.196Z,20.55
2023-05-23T08:16:52.316Z,20.48
2023-05-23T08:17:52.301Z,20.59
2023-05-23T08:18:52.257Z,20.72
2023-05-23T08:19:52.160Z,20.75
2023-05-23T08:20:52.152Z,20.77
2023-05-23T08:21:52.128Z,20.88
2023-05-23T08:22:52.112Z,20.84
2023-05-23T08:23:52.133Z,20.93
2023-05-23T08:24:52.089Z,20.90
2023-05-23T08:25:52.701Z,20.85
2023-05-23T08:26:52.074Z,21.02
2023-05-23T08:27:52.121Z,20.95
2023-05-23T08:28:52.050Z,20.87
2023-05-23T08:29:52.162Z,21.07
2023-05-23T08:30:52.032Z,21.06
2023-05-23T08:31:52.089Z,21.02
2023-05-23T08:32:52.082Z,21.05
2023-05-23T08:33:52.022Z,21.06
2023-05-23T08:34:52.005Z,20.97
2023-05-23T08:35:51.984Z,21.03
2023-05-23T08:36:51.969Z,20.99
2023-05-23T08:37:51.975Z,21.00
2023-05-23T08:38:51.948Z,21.11
2023-05-23T08:39:51.950Z,21.07
2023-05-23T08:40:51.942Z,21.12
2023-05-23T08:41:51.925Z,21.21
2023-05-23T08:42:51.978Z,21.29
2023-05-23T08:43:51.883Z,21.32
2023-05-23T08:44:51.877Z,21.32
2023-05-23T08:45:51.910Z,21.35
2023-05-23T08:46:51.873Z,21.43
2023-05-23T08:47:51.873Z,21.51
2023-05-23T08:48:51.830Z,21.37
2023-05-23T08:49:51.886Z,21.46
2023-05-23T08:50:51.843Z,21.24
2023-05-23T08:51:51.811Z,21.22
2023-05-23T08:52:51.803Z,21.37
2023-05-23T08:53:53.135Z,21.46
2023-05-23T08:54:51.769Z,21.61
2023-05-23T08:55:51.785Z,21.55
2023-05-23T08:56:51.751Z,21.43
2023-05-23T08:57:51.752Z,21.39
2023-05-23T08:58:51.750Z,21.20
2023-05-23T08:59:51.703Z,21.29
2023-05-23T09:00:51.693Z,21.40
2023-05-23T09:01:51.748Z,21.51
2023-05-23T09:02:51.806Z,21.51
2023-05-23T09:03:51.675Z,21.43
2023-05-23T09:04:51.676Z,21.50
2023-05-23T09:05:51.670Z,21.66
2023-05-23T09:06:51.643Z,21.75
2023-05-23T09:07:51.648Z,21.80
2023-05-23T09:08:51.605Z,21.83
2023-05-23T09:09:51.626Z,21.89
2023-05-23T09:10:51.593Z,21.85
2023-05-23T09:11:51.573Z,21.92
2023-05-23T09:12:51.587Z,21.99
2023-05-23T09:13:51.590Z,21.98
2023-05-23T09:14:51.563Z,21.96
2023-05-23T09:15:51.628Z,21.75
2023-05-23T09:16:51.516Z,21.62
2023-05-23T09:17:51.558Z,21.67
2023-05-23T09:18:51.525Z,21.64
2023-05-23T09:19:51.508Z,21.82
2023-05-23T09:20:51.503Z,21.69
2023-05-23T09:21:51.469Z,21.50
2023-05-23T09:22:51.458Z,21.64
2023-05-23T09:23:51.451Z,21.57
2023-05-23T09:24:51.437Z,21.52
2023-05-23T09:25:51.458Z,21.52
2023-05-23T09:26:51.432Z,21.54
2023-05-23T09:27:51.407Z,21.61
2023-05-23T09:28:51.386Z,21.64
2023-05-23T09:29:51.530Z,21.57
2023-05-23T09:30:51.364Z,21.61
2023-05-23T09:31:51.505Z,21.58
2023-05-23T09:32:51.390Z,21.52
2023-05-23T09:33:51.343Z,21.39
2023-05-23T09:34:51.323Z,21.36
2023-05-23T09:35:51.327Z,21.37
2023-05-23T09:36:51.299Z,21.37
2023-05-23T09:37:51.298Z,21.37
2023-05-23T09:38:51.278Z,21.45
2023-05-23T09:39:51.330Z,21.54
2023-05-23T09:40:51.258Z,21.32
2023-05-23T09:41:51.250Z,21.36
2023-05-23T09:42:51.267Z,21.40
2023-05-23T09:43:51.234Z,21.40
2023-05-23T09:44:51.219Z,21.27
2023-05-23T09:45:51.251Z,21.29
2023-05-23T09:46:51.225Z,21.30
2023-05-23T09:47:51.226Z,21.32
2023-05-23T09:48:51.193Z,21.25
2023-05-23T09:49:51.162Z,21.30
2023-05-23T09:50:51.189Z,21.32
2023-05-23T09:51:51.167Z,21.32
2023-05-23T09:52:51.231Z,21.35
2023-05-23T09:53:51.203Z,21.36
2023-05-23T09:54:51.117Z,21.39
2023-05-23T09:55:51.127Z,21.36
2023-05-23T09:56:51.103Z,21.32
2023-05-23T09:57:51.098Z,21.27
2023-05-23T09:58:51.119Z,21.18
2023-05-23T09:59:51.091Z,21.24
2023-05-23T10:00:51.092Z,21.25
2023-05-23T10:01:51.101Z,21.33
2023-05-23T10:02:51.061Z,21.22
2023-05-23T10:03:51.041Z,21.22
2023-05-23T10:04:51.120Z,21.18
2023-05-23T10:05:50.996Z,21.27
2023-05-23T10:06:51.000Z,21.37
2023-05-23T10:07:50.976Z,21.30
2023-05-23T10:08:50.943Z,21.32
2023-05-23T10:09:50.950Z,21.32
2023-05-23T10:10:50.926Z,21.32
2023-05-23T10:11:50.919Z,21.37
2023-05-23T10:12:50.933Z,21.43
2023-05-23T10:13:50.909Z,21.46
2023-05-23T10:14:50.878Z,21.24
2023-05-23T10:15:50.869Z,21.45
2023-05-23T10:16:50.930Z,21.40
2023-05-23T10:17:50.916Z,21.35
2023-05-23T10:18:50.849Z,21.25
2023-05-23T10:19:50.857Z,21.24
2023-05-23T10:20:50.811Z,21.25
2023-05-23T10:21:50.819Z,21.40
2023-05-23T10:22:50.816Z,21.42
2023-05-23T10:23:50.838Z,21.39
2023-05-23T10:24:50.773Z,21.32
2023-05-23T10:25:50.772Z,21.35
2023-05-23T10:26:50.764Z,21.32
2023-05-23T10:27:52.159Z,21.24
2023-05-23T10:28:50.751Z,21.33
2023-05-23T10:29:50.720Z,21.33
2023-05-23T10:30:50.746Z,21.40
2023-05-23T10:31:50.720Z,21.43
2023-05-23T10:32:50.776Z,21.57
2023-05-23T10:33:50.697Z,21.45
2023-05-23T10:34:50.669Z,21.62
2023-05-23T10:35:50.666Z,21.62
2023-05-23T10:36:50.671Z,21.62
2023-05-23T10:37:50.649Z,21.69
2023-05-23T10:38:51.541Z,21.58
2023-05-23T10:39:50.611Z,21.55
2023-05-23T10:40:50.620Z,21.52
2023-05-23T10:41:50.614Z,21.61
2023-05-23T10:42:50.573Z,21.55
2023-05-23T10:43:50.568Z,21.39
2023-05-23T10:44:50.545Z,21.11
2023-05-23T10:45:50.684Z,21.14
2023-05-23T10:46:50.596Z,21.20
2023-05-23T10:47:50.618Z,21.29
2023-05-23T10:48:50.515Z,21.18
2023-05-23T10:49:50.522Z,21.02
2023-05-23T10:50:50.476Z,20.99
2023-05-23T10:51:51.274Z,21.00
2023-05-23T10:52:50.456Z,20.99
2023-05-23T10:53:50.498Z,20.88
2023-05-23T10:54:50.474Z,20.97
2023-05-23T10:55:50.420Z,20.90
2023-05-23T10:56:50.412Z,20.85
2023-05-23T10:57:51.140Z,20.75
2023-05-23T10:58:50.451Z,20.85
2023-05-23T10:59:50.390Z,20.92
2023-05-23T11:00:50.390Z,20.82
2023-05-23T11:01:50.405Z,20.85
2023-05-23T11:02:50.390Z,20.82
2023-05-23T11:03:53.086Z,21.02
2023-05-23T11:04:50.341Z,20.99
2023-05-23T11:05:50.347Z,20.99
2023-05-23T11:06:50.298Z,20.84
2023-05-23T11:07:50.289Z,21.02
2023-05-23T11:08:50.307Z,21.18
2023-05-23T11:09:50.276Z,21.36
2023-05-23T11:10:50.265Z,21.55
2023-05-23T11:11:50.264Z,21.50
2023-05-23T11:12:50.231Z,21.45
2023-05-23T11:13:50.235Z,21.57
2023-05-23T11:14:51.131Z,21.66
2023-05-23T11:15:50.208Z,21.52
2023-05-23T11:16:50.226Z,21.61
2023-05-23T11:17:50.233Z,21.66
2023-05-23T11:18:50.213Z,21.45
2023-05-23T11:19:50.176Z,21.39
2023-05-23T11:20:50.856Z,21.39
2023-05-23T11:21:50.159Z,21.54
2023-05-23T11:22:50.130Z,21.21
2023-05-23T11:23:50.151Z,21.07
2023-05-23T11:24:50.118Z,20.93
2023-05-23T11:25:50.107Z,20.84
2023-05-23T11:26:50.516Z,21.06
2023-05-23T11:27:50.094Z,21.06
2023-05-23T11:28:50.060Z,21.14
2023-05-23T11:29:50.046Z,21.02
2023-05-23T11:30:50.063Z,21.05
2023-05-23T11:31:50.084Z,21.03
2023-05-23T11:32:50.080Z,20.97
2023-05-23T11:33:50.036Z,20.87
2023-05-23T11:34:50.022Z,20.84
2023-05-23T11:35:49.987Z,20.72
2023-05-23T11:36:49.985Z,20.84
2023-05-23T11:37:50.003Z,20.66
2023-05-23T11:38:49.973Z,20.40
2023-05-23T11:39:49.991Z,20.47
2023-05-23T11:40:49.955Z,20.55
2023-05-23T11:41:49.948Z,20.51
2023-05-23T11:42:50.574Z,20.69
2023-05-23T11:43:49.935Z,20.29
2023-05-23T11:44:49.916Z,19.96
2023-05-23T11:45:49.921Z,19.85
2023-05-23T11:46:49.880Z,19.74
2023-05-23T11:47:49.908Z,19.84
2023-05-23T11:48:49.842Z,19.86
2023-05-23T11:49:49.853Z,19.95
2023-05-23T11:50:49.830Z,20.06
2023-05-23T11:51:49.833Z,20.16
2023-05-23T11:52:49.822Z,20.02
2023-05-23T11:53:49.836Z,19.95
2023-05-23T11:54:49.807Z,19.95
2023-05-23T11:55:49.781Z,20.04
2023-05-23T11:56:49.763Z,20.06
2023-05-23T11:57:49.823Z,20.07
2023-05-23T11:58:49.727Z,20.04
2023-05-23T11:59:49.739Z,20.19
2023-05-23T12:00:49.705Z,20.31
2023-05-23T12:01:49.716Z,20.19
2023-05-23T12:02:49.929Z,20.16
2023-05-23T12:03:49.949Z,20.26
2023-05-23T12:04:49.699Z,20.34
2023-05-23T12:05:49.662Z,20.48
2023-05-23T12:06:49.640Z,20.16
2023-05-23T12:07:49.804Z,19.95
2023-05-23T12:08:49.651Z,19.64
2023-05-23T12:09:49.635Z,19.48
2023-05-23T12:10:49.593Z,19.48
2023-05-23T12:11:49.596Z,19.27
2023-05-23T12:12:49.573Z,19.08
2023-05-23T12:13:49.586Z,19.27
2023-05-23T12:14:49.556Z,19.29
2023-05-23T12:15:50.476Z,19.40
2023-05-23T12:16:49.576Z,19.39
2023-05-23T12:17:49.617Z,19.49
2023-05-23T12:18:49.546Z,19.49
2023-05-23T12:19:49.502Z,19.45
2023-05-23T12:20:49.494Z,19.48
2023-05-23T12:21:49.507Z,19.33
2023-05-23T12:22:49.513Z,19.22
2023-05-23T12:23:49.445Z,19.15
2023-05-23T12:24:49.457Z,19.07
2023-05-23T12:25:49.448Z,19.02
2023-05-23T12:26:49.471Z,19.12
2023-05-23T12:27:49.444Z,19.15
2023-05-23T12:28:49.396Z,19.26
2023-05-23T12:29:49.410Z,19.39
2023-05-23T12:30:49.399Z,19.48
2023-05-23T12:31:49.432Z,19.30
2023-05-23T12:32:49.439Z,19.31
2023-05-23T12:33:50.250Z,19.33
2023-05-23T12:34:49.329Z,19.29
2023-05-23T12:35:49.354Z,19.34
2023-05-23T12:36:51.908Z,19.30
2023-05-23T12:37:50.348Z,19.34
2023-05-23T12:38:49.319Z,19.40
2023-05-23T12:39:49.274Z,19.33
2023-05-23T12:40:49.264Z,19.36
2023-05-23T12:41:56.989Z,19.59
2023-05-23T12:42:49.245Z,19.64
2023-05-23T12:43:49.253Z,19.49
2023-05-23T12:44:49.256Z,19.58
2023-05-23T12:45:49.210Z,19.56
2023-05-23T12:46:49.242Z,19.82
2023-05-23T12:47:51.429Z,19.89
2023-05-23T12:48:49.185Z,19.62
2023-05-23T12:49:49.186Z,19.66
2023-05-23T12:50:49.189Z,19.58
2023-05-23T12:51:49.161Z,19.54
2023-05-23T12:52:49.134Z,19.59